Time;durP1;ratioP1;P1;durP2;ratioP2;P2;SDS_P1;SDS_P2;PMS_P1;PMS_P2;Temp;Humidity;BMP_temperature;BMP_pressure;BME280_temperature;BME280_humidity;BME280_pressure;Samples;Min_cycle;Max_cycle;Signal;HPM_P1;HPM_P2
2021/01/28 00:02:22;;;;;;;7.40;6.32;;;22.50;99.90;;;;;;6095870;23;20542;-27
2021/01/28 00:04:48;;;;;;;10.35;7.40;;;22.50;99.90;;;;;;6096629;23;20113;-27
2021/01/28 00:07:13;;;;;;;9.65;7.85;;;22.40;99.90;;;;;;6097138;23;20006;-27
2021/01/28 00:09:39;;;;;;;12.30;9.52;;;22.40;99.90;;;;;;6048184;23;20002;-27
2021/01/28 00:12:06;;;;;;;13.23;9.20;;;22.40;99.90;;;;;;6096314;23;20101;-27
2021/01/28 00:14:31;;;;;;;25.40;20.40;;;22.40;99.90;;;;;;6097270;23;20732;-27
2021/01/28 00:16:57;;;;;;;47.17;42.10;;;22.40;99.90;;;;;;6097624;23;20003;-27
2021/01/28 00:19:23;;;;;;;74.15;64.88;;;22.30;99.90;;;;;;6095969;23;20065;-27
2021/01/28 00:21:49;;;;;;;68.47;57.38;;;22.30;99.90;;;;;;6097202;23;20006;-27
2021/01/28 00:24:15;;;;;;;55.80;48.22;;;22.30;99.90;;;;;;6097538;23;20359;-27
2021/01/28 00:26:41;;;;;;;48.83;43.25;;;22.30;99.90;;;;;;6097591;23;20007;-27
2021/01/28 00:29:06;;;;;;;42.92;36.00;;;22.30;99.90;;;;;;6096706;23;20429;-27
2021/01/28 00:31:32;;;;;;;40.20;34.67;;;22.30;99.90;;;;;;6096613;23;20057;-27
2021/01/28 00:33:58;;;;;;;35.83;29.67;;;22.40;99.90;;;;;;6096482;23;20049;-27
2021/01/28 00:36:25;;;;;;;34.83;29.15;;;22.30;99.90;;;;;;6097208;23;20061;-27
2021/01/28 00:38:51;;;;;;;34.17;27.90;;;22.40;99.90;;;;;;6098494;23;20026;-27
2021/01/28 00:41:17;;;;;;;27.88;24.88;;;22.30;99.90;;;;;;6098230;23;20085;-27
2021/01/28 00:43:42;;;;;;;31.33;25.92;;;22.30;99.90;;;;;;6097763;23;20030;-26
2021/01/28 00:46:08;;;;;;;28.92;23.30;;;22.30;99.90;;;;;;6098166;23;20077;-27
2021/01/28 00:48:34;;;;;;;25.55;22.85;;;22.30;99.90;;;;;;6097927;23;20002;-27
2021/01/28 00:51:03;;;;;;;25.50;22.23;;;22.30;99.90;;;;;;6097946;23;20421;-27
2021/01/28 00:53:29;;;;;;;27.55;21.05;;;22.30;99.90;;;;;;6097183;23;20095;-27
2021/01/28 00:55:55;;;;;;;22.40;19.98;;;22.20;99.90;;;;;;6096761;23;20049;-27
2021/01/28 00:58:24;;;;;;;22.67;18.60;;;22.20;99.90;;;;;;6096222;23;20011;-27
2021/01/28 01:00:50;;;;;;;21.42;18.17;;;22.20;99.90;;;;;;6096908;23;20006;-27
2021/01/28 01:03:18;;;;;;;19.60;17.33;;;22.20;99.90;;;;;;6097503;23;20002;-27
2021/01/28 01:05:45;;;;;;;21.50;16.35;;;22.20;99.90;;;;;;6097575;23;20326;-27
2021/01/28 01:08:17;;;;;;;19.13;17.02;;;22.20;99.90;;;;;;6097596;23;20074;-27
2021/01/28 01:10:47;;;;;;;18.13;15.65;;;22.20;99.90;;;;;;6097961;23;20313;-27
2021/01/28 01:13:19;;;;;;;16.77;14.82;;;22.10;99.90;;;;;;6097931;23;20081;-27
2021/01/28 01:15:46;;;;;;;15.73;13.82;;;22.10;99.90;;;;;;6097800;23;20002;-27
2021/01/28 01:18:15;;;;;;;16.42;13.93;;;22.10;99.90;;;;;;6097223;23;20014;-27
2021/01/28 01:20:41;;;;;;;16.17;12.13;;;22.10;99.90;;;;;;6097474;23;20790;-27
2021/01/28 01:23:07;;;;;;;13.75;11.90;;;22.10;99.90;;;;;;6097422;23;20006;-27
2021/01/28 01:25:33;;;;;;;12.50;10.65;;;22.10;99.90;;;;;;6072147;23;20010;-27
2021/01/28 01:27:58;;;;;;;14.32;11.15;;;22.10;99.90;;;;;;6097465;23;20322;-27
2021/01/28 01:30:25;;;;;;;12.55;9.93;;;22.10;99.90;;;;;;6097293;23;20073;-27
2021/01/28 01:32:51;;;;;;;13.82;10.80;;;22.10;99.90;;;;;;6071862;23;20003;-27
2021/01/28 01:35:19;;;;;;;11.35;9.75;;;22.10;99.90;;;;;;6097340;23;19999;-27
2021/01/28 01:37:45;;;;;;;10.85;8.07;;;22.00;99.90;;;;;;6097640;23;20322;-27
2021/01/28 01:40:17;;;;;;;9.10;7.22;;;22.10;99.90;;;;;;6097207;23;19998;-27
2021/01/28 01:42:47;;;;;;;9.48;8.10;;;22.00;99.90;;;;;;6097078;23;20330;-27
2021/01/28 01:45:13;;;;;;;8.20;7.40;;;22.00;99.90;;;;;;6097319;23;20009;-27
2021/01/28 01:47:55;;;;;;;9.07;7.72;;;22.00;99.90;;;;;;6097094;23;20029;-27
2021/01/28 01:50:29;;;;;;;8.95;6.85;;;22.00;99.90;;;;;;6071992;23;20036;-27
2021/01/28 01:52:58;;;;;;;8.07;6.07;;;22.00;99.90;;;;;;6097525;23;19999;-27
2021/01/28 01:55:26;;;;;;;10.10;6.82;;;22.00;99.90;;;;;;6071934;23;20013;-27
2021/01/28 01:57:52;;;;;;;8.07;6.93;;;22.00;99.90;;;;;;6097547;23;19998;-27
2021/01/28 02:00:20;;;;;;;8.63;6.70;;;22.00;99.90;;;;;;6096698;23;20041;-27
2021/01/28 02:02:54;;;;;;;7.13;5.85;;;21.90;99.90;;;;;;6097025;23;20006;-27
2021/01/28 02:05:27;;;;;;;7.60;5.63;;;21.90;99.90;;;;;;6096990;23;19998;-27
2021/01/28 02:07:53;;;;;;;6.05;5.35;;;21.90;99.90;;;;;;6097739;23;20053;-27
2021/01/28 02:10:21;;;;;;;6.30;5.13;;;21.90;99.90;;;;;;6097264;23;20006;-27
2021/01/28 02:12:47;;;;;;;5.88;5.28;;;21.90;99.90;;;;;;6097115;23;20010;-27
2021/01/28 02:15:14;;;;;;;5.97;4.55;;;21.90;99.90;;;;;;6097668;23;20033;-27
2021/01/28 02:17:43;;;;;;;5.97;5.32;;;21.90;99.90;;;;;;6097078;23;19998;-27
2021/01/28 02:20:18;;;;;;;6.50;4.85;;;21.80;99.90;;;;;;6097412;23;20006;-27
2021/01/28 02:22:44;;;;;;;5.65;4.57;;;21.80;99.90;;;;;;6097423;23;20336;-25
2021/01/28 02:25:34;;;;;;;5.40;4.20;;;21.80;99.90;;;;;;6071901;23;20009;-25
2021/01/28 02:28:09;;;;;;;5.97;4.55;;;21.80;99.90;;;;;;6096874;23;20009;-25
2021/01/28 02:30:36;;;;;;;5.53;4.93;;;21.80;99.90;;;;;;6097068;23;20009;-25
2021/01/28 02:33:03;;;;;;;7.47;5.38;;;21.80;99.90;;;;;;6097384;23;20005;-25
2021/01/28 02:35:32;;;;;;;6.32;5.30;;;21.80;99.90;;;;;;6097301;23;20022;-25
2021/01/28 02:38:03;;;;;;;6.28;4.97;;;21.70;99.90;;;;;;6097184;23;20026;-24
2021/01/28 02:40:30;;;;;;;7.53;6.07;;;21.80;99.90;;;;;;6097130;23;20022;-25
2021/01/28 02:42:57;;;;;;;6.68;5.43;;;21.70;99.90;;;;;;6096968;23;20759;-25
2021/01/28 02:45:28;;;;;;;8.20;5.93;;;21.80;99.90;;;;;;6097008;23;20029;-25
2021/01/28 02:48:05;;;;;;;5.45;4.80;;;21.70;99.90;;;;;;6097070;23;19998;-25
2021/01/28 02:50:31;;;;;;;6.93;4.97;;;21.70;99.90;;;;;;6071104;23;20022;-25
2021/01/28 02:53:01;;;;;;;6.40;5.28;;;21.70;99.90;;;;;;6095787;23;20007;-25
2021/01/28 02:55:28;;;;;;;5.85;4.85;;;21.70;99.90;;;;;;6096178;23;20469;-25
2021/01/28 02:57:55;;;;;;;6.82;4.60;;;21.70;99.90;;;;;;6096513;23;19998;-25
2021/01/28 03:00:33;;;;;;;5.83;5.10;;;21.70;99.90;;;;;;6096618;23;20125;-25
2021/01/28 03:03:01;;;;;;;4.95;4.45;;;21.60;99.90;;;;;;6097122;23;20287;-25
2021/01/28 03:05:26;;;;;;;7.28;4.63;;;21.60;99.90;;;;;;6096789;23;20038;-25
2021/01/28 03:07:52;;;;;;;5.30;4.43;;;21.70;99.90;;;;;;6096807;23;20011;-25
2021/01/28 03:10:21;;;;;;;6.40;4.60;;;21.60;99.90;;;;;;6071391;23;20010;-25
2021/01/28 03:12:48;;;;;;;7.45;4.95;;;21.60;99.90;;;;;;6096703;23;20444;-25
2021/01/28 03:15:17;;;;;;;5.35;4.57;;;21.60;99.90;;;;;;6096856;23;20005;-25
2021/01/28 03:17:43;;;;;;;4.82;3.97;;;21.60;99.90;;;;;;6096722;23;20009;-25
2021/01/28 03:20:11;;;;;;;5.28;4.50;;;21.60;99.90;;;;;;6096822;23;20003;-25
2021/01/28 03:22:38;;;;;;;5.65;4.32;;;21.60;99.90;;;;;;6096802;23;20002;-25
2021/01/28 03:25:06;;;;;;;4.38;3.97;;;21.60;99.90;;;;;;6096935;23;20006;-25
2021/01/28 03:27:31;;;;;;;;;;;21.60;99.90;;;;;;6097347;23;20477;-25
2021/01/28 03:29:58;;;;;;;6.97;4.68;;;21.60;99.90;;;;;;6096348;23;19901;-25
2021/01/28 03:32:24;;;;;;;4.10;3.45;;;21.60;99.90;;;;;;6047105;23;19999;-25
2021/01/28 03:34:50;;;;;;;4.95;4.22;;;21.60;99.90;;;;;;6096366;23;20006;-25
2021/01/28 03:37:16;;;;;;;4.20;3.78;;;21.50;99.90;;;;;;6096748;23;20082;-25
2021/01/28 03:39:41;;;;;;;6.20;4.25;;;21.50;99.90;;;;;;6097894;23;20090;-25
2021/01/28 03:42:07;;;;;;;4.50;4.10;;;21.50;99.90;;;;;;6098659;23;20329;-25
2021/01/28 03:44:33;;;;;;;4.22;3.75;;;21.50;99.90;;;;;;6099375;23;20418;-25
2021/01/28 03:46:59;;;;;;;4.50;4.10;;;21.50;99.90;;;;;;6073125;23;20066;-25
2021/01/28 03:49:25;;;;;;;6.65;4.28;;;21.50;99.90;;;;;;6073331;23;20026;-25
2021/01/28 03:51:50;;;;;;;5.45;4.38;;;21.50;99.90;;;;;;6072734;23;20030;-25
2021/01/28 03:54:16;;;;;;;4.00;3.60;;;21.50;99.90;;;;;;6098737;23;20328;-25
2021/01/28 03:56:42;;;;;;;7.00;4.63;;;21.50;99.90;;;;;;6098363;23;20038;-25
2021/01/28 03:59:08;;;;;;;5.63;4.32;;;21.50;99.90;;;;;;6098218;23;20449;-25
2021/01/28 04:01:34;;;;;;;4.43;3.85;;;21.40;99.90;;;;;;6096292;23;20007;-25
2021/01/28 04:04:00;;;;;;;5.25;4.03;;;21.40;99.90;;;;;;6098208;23;20007;-25
2021/01/28 04:06:25;;;;;;;4.63;4.15;;;21.40;99.90;;;;;;6097988;23;20040;-25
2021/01/28 04:08:51;;;;;;;5.10;4.60;;;21.40;99.90;;;;;;6098227;23;20073;-25
2021/01/28 04:11:17;;;;;;;5.55;4.25;;;21.40;99.90;;;;;;6098019;23;20030;-25
2021/01/28 04:13:43;;;;;;;4.25;3.85;;;21.40;99.90;;;;;;6098010;23;20074;-25
2021/01/28 04:16:08;;;;;;;4.55;4.15;;;21.40;99.90;;;;;;6097251;23;20003;-25
2021/01/28 04:18:34;;;;;;;5.95;3.78;;;21.40;99.90;;;;;;6097082;23;20030;-25
2021/01/28 04:21:00;;;;;;;5.65;4.07;;;21.40;99.90;;;;;;6097199;23;20006;-25
2021/01/28 04:23:26;;;;;;;4.50;3.97;;;21.30;99.90;;;;;;6097351;23;20445;-25
2021/01/28 04:25:52;;;;;;;3.70;3.25;;;21.30;99.90;;;;;;6098033;23;20003;-25
2021/01/28 04:28:17;;;;;;;5.10;4.00;;;21.30;99.90;;;;;;6097473;23;20006;-25
2021/01/28 04:30:44;;;;;;;4.95;3.80;;;21.30;99.90;;;;;;6097743;23;20006;-25
2021/01/28 04:33:10;;;;;;;4.90;3.90;;;21.30;99.90;;;;;;6098040;23;20006;-25
2021/01/28 04:35:36;;;;;;;4.25;3.63;;;21.30;99.90;;;;;;6098122;23;20070;-25
2021/01/28 04:38:02;;;;;;;4.30;3.90;;;21.30;99.90;;;;;;6098349;23;20006;-25
2021/01/28 04:40:51;;;;;;;4.70;3.63;;;21.20;99.90;;;;;;6073282;23;20010;-25
2021/01/28 04:43:23;;;;;;;4.95;3.65;;;21.20;99.90;;;;;;6097530;23;20030;-25
2021/01/28 04:45:56;;;;;;;4.53;3.75;;;21.20;99.90;;;;;;6097107;23;20010;-25
2021/01/28 04:48:23;;;;;;;3.63;3.30;;;21.20;99.90;;;;;;6097123;23;20322;-25
2021/01/28 04:50:49;;;;;;;5.03;4.18;;;21.30;99.90;;;;;;6096851;23;20050;-25
2021/01/28 04:53:20;;;;;;;4.30;3.90;;;21.30;99.90;;;;;;6071247;23;20006;-25
2021/01/28 04:55:50;;;;;;;3.92;3.53;;;21.30;99.90;;;;;;6096738;23;20231;-25
2021/01/28 04:58:17;;;;;;;4.57;3.83;;;21.20;99.90;;;;;;6096653;23;20006;-25
2021/01/28 05:00:43;;;;;;;3.65;3.17;;;21.30;99.90;;;;;;6096622;23;20006;-25
2021/01/28 05:03:25;;;;;;;4.55;3.63;;;21.30;99.90;;;;;;6096522;23;20013;-25
2021/01/28 05:05:54;;;;;;;3.80;3.40;;;21.20;99.90;;;;;;6097771;23;20319;-25
2021/01/28 05:08:21;;;;;;;4.15;3.75;;;21.20;99.90;;;;;;6097673;23;20322;-25
2021/01/28 05:10:53;;;;;;;4.32;3.47;;;21.20;99.90;;;;;;6097022;23;20010;-25
2021/01/28 05:13:28;;;;;;;5.07;3.95;;;21.20;99.90;;;;;;6097377;23;20006;-25
2021/01/28 05:15:54;;;;;;;4.90;3.40;;;21.20;99.90;;;;;;6096907;23;20006;-25
2021/01/28 05:18:27;;;;;;;4.32;3.78;;;21.20;99.90;;;;;;6097113;23;20096;-25
2021/01/28 05:21:03;;;;;;;4.72;3.90;;;21.20;99.90;;;;;;6096261;23;20085;-25
2021/01/28 05:23:40;;;;;;;5.70;3.38;;;21.20;99.90;;;;;;6097191;23;20026;-25
2021/01/28 05:26:31;;;;;;;5.53;3.70;;;21.20;99.90;;;;;;6097625;23;20022;-25
2021/01/28 05:29:14;;;;;;;4.57;3.63;;;21.20;99.90;;;;;;6072342;23;20446;-25
2021/01/28 05:31:40;;;;;;;3.90;3.45;;;21.10;99.90;;;;;;6097250;23;20433;-24
2021/01/28 05:34:09;;;;;;;5.25;3.53;;;21.10;99.90;;;;;;6070629;23;20006;-25
2021/01/28 05:36:41;;;;;;;4.00;3.63;;;21.10;99.90;;;;;;6096557;23;20014;-25
2021/01/28 05:39:39;;;;;;;3.88;3.33;;;21.10;99.90;;;;;;6096769;23;20440;-25
2021/01/28 05:42:07;;;;;;;;;;;21.10;99.90;;;;;;6074735;23;20017;-25
2021/01/28 05:44:37;;;;;;;4.70;3.80;;;21.20;99.90;;;;;;6096929;23;19991;-25
2021/01/28 05:47:18;;;;;;;4.00;3.40;;;21.10;99.90;;;;;;6096886;23;20089;-25
2021/01/28 05:49:46;;;;;;;4.13;3.30;;;21.10;99.90;;;;;;6097175;23;20002;-25
2021/01/28 05:52:25;;;;;;;4.88;3.58;;;21.10;99.90;;;;;;6097594;23;20059;-25
2021/01/28 05:55:22;;;;;;;4.10;3.40;;;21.10;99.90;;;;;;6097376;23;20445;-25
2021/01/28 05:57:59;;;;;;;5.53;3.40;;;21.10;99.90;;;;;;5981016;23;20305;-25
2021/01/28 06:00:57;;;;;;;4.97;3.47;;;21.10;99.90;;;;;;5980644;24;20008;-25
2021/01/28 06:03:44;;;;;;;4.25;3.42;;;21.10;99.90;;;;;;5981088;24;20078;-25
2021/01/28 06:06:31;;;;;;;5.32;3.50;;;21.10;99.90;;;;;;5981084;24;20043;-25
2021/01/28 06:09:33;;;;;;;4.63;3.78;;;21.10;99.90;;;;;;5981230;24;20070;-25
2021/01/28 06:12:24;;;;;;;4.50;4.10;;;21.10;99.90;;;;;;6002534;23;20116;-25
2021/01/28 06:15:11;;;;;;;4.78;4.28;;;21.10;99.90;;;;;;6009267;23;20004;-25
2021/01/28 06:18:15;;;;;;;7.20;4.03;;;21.00;99.90;;;;;;6009280;23;20012;-25
2021/01/28 06:21:08;;;;;;;5.82;4.65;;;21.00;99.90;;;;;;6008411;23;20060;-25
2021/01/28 06:23:37;;;;;;;9.70;4.07;;;21.00;99.90;;;;;;6009188;23;20091;-25
2021/01/28 06:26:09;;;;;;;5.60;4.13;;;21.00;99.90;;;;;;6008857;23;20027;-25
2021/01/28 06:29:00;;;;;;;4.40;4.00;;;21.00;99.90;;;;;;6009183;23;20029;-25
2021/01/28 06:31:45;;;;;;;8.02;4.15;;;21.00;99.90;;;;;;6008104;23;20427;-25
2021/01/28 06:34:38;;;;;;;8.40;4.28;;;21.00;99.90;;;;;;6051578;23;20003;-25
2021/01/28 06:37:16;;;;;;;4.43;4.00;;;21.00;99.90;;;;;;6096638;23;20040;-25
2021/01/28 06:39:46;;;;;;;8.02;4.70;;;20.90;99.90;;;;;;6096552;23;20061;-25
2021/01/28 06:42:33;;;;;;;5.47;4.05;;;20.90;99.90;;;;;;6096626;23;20006;-25
2021/01/28 06:45:10;;;;;;;6.10;4.25;;;20.90;99.90;;;;;;6096732;23;20418;-25
2021/01/28 06:48:06;;;;;;;3.60;3.13;;;20.90;99.90;;;;;;6095501;23;20095;-25
2021/01/28 06:50:45;;;;;;;5.57;4.13;;;20.80;99.90;;;;;;6097165;23;20056;-25
2021/01/28 06:53:24;;;;;;;6.57;4.60;;;20.80;99.90;;;;;;6096228;23;20002;-25
2021/01/28 06:56:10;;;;;;;5.13;4.20;;;20.70;99.90;;;;;;6095656;23;20006;-25
2021/01/28 06:59:23;;;;;;;6.47;4.03;;;20.50;99.90;;;;;;6051627;23;20034;-25
2021/01/28 07:02:01;;;;;;;9.07;4.60;;;20.40;99.90;;;;;;6032124;23;20038;-25
2021/01/28 07:04:47;;;;;;;6.80;4.28;;;20.30;99.90;;;;;;6099126;23;20011;-24
2021/01/28 07:07:23;;;;;;;7.43;4.05;;;20.20;99.90;;;;;;6092802;23;20022;-24
2021/01/28 07:09:52;;;;;;;6.10;3.70;;;20.10;99.90;;;;;;6096585;23;20018;-24
2021/01/28 07:12:27;;;;;;;4.50;3.88;;;19.90;99.90;;;;;;6096329;23;20465;-24
2021/01/28 07:14:53;;;;;;;6.53;5.00;;;19.90;99.90;;;;;;6096720;23;20608;-24
2021/01/28 07:17:35;;;;;;;5.38;4.55;;;19.90;99.90;;;;;;6096659;23;20411;-24
2021/01/28 07:20:06;;;;;;;5.82;4.60;;;20.00;99.90;;;;;;6072515;23;20066;-25
2021/01/28 07:22:46;;;;;;;7.95;4.82;;;20.10;99.90;;;;;;6096359;23;20078;-24
2021/01/28 07:25:33;;;;;;;6.22;5.10;;;20.20;99.90;;;;;;6096855;23;20350;-24
2021/01/28 07:28:06;;;;;;;6.95;4.93;;;20.30;99.90;;;;;;6096764;23;20006;-25
2021/01/28 07:31:12;;;;;;;6.93;5.07;;;20.30;99.90;;;;;;6071771;23;19998;-24
2021/01/28 07:33:58;;;;;;;9.60;5.82;;;20.30;99.90;;;;;;6096866;23;20070;-24
2021/01/28 07:36:24;;;;;;;6.97;5.03;;;20.40;99.90;;;;;;6096827;23;20010;-24
2021/01/28 07:39:00;;;;;;;9.77;6.00;;;20.50;99.90;;;;;;6096919;23;20003;-24
2021/01/28 07:41:34;;;;;;;14.57;12.10;;;20.50;99.90;;;;;;6096806;23;20010;-24
2021/01/28 07:44:30;;;;;;;13.90;11.00;;;20.50;99.90;;;;;;6096922;23;20009;-24
2021/01/28 07:46:58;;;;;;;12.95;8.35;;;20.40;99.90;;;;;;6096716;23;20030;-25
2021/01/28 07:49:29;;;;;;;9.20;6.75;;;20.30;99.90;;;;;;6097167;23;20418;-24
2021/01/28 07:51:58;;;;;;;10.85;6.05;;;20.30;99.90;;;;;;6096681;23;20102;-25
2021/01/28 07:54:29;;;;;;;9.50;5.90;;;20.20;99.90;;;;;;6096815;23;20010;-25
2021/01/28 07:56:57;;;;;;;9.48;5.43;;;20.20;99.90;;;;;;6096819;23;20009;-24
2021/01/28 07:59:29;;;;;;;7.13;5.43;;;20.20;99.90;;;;;;6096649;23;20025;-24
2021/01/28 08:01:58;;;;;;;11.13;5.75;;;20.10;99.90;;;;;;6096772;23;20006;-25
2021/01/28 08:04:40;;;;;;;11.02;6.03;;;20.20;99.90;;;;;;6096764;23;20003;-25
2021/01/28 08:07:09;;;;;;;9.35;6.85;;;20.10;99.90;;;;;;6096719;23;20370;-24
2021/01/28 08:09:49;;;;;;;119.25;100.25;;;20.20;99.90;;;;;;6096864;23;20424;-24
2021/01/28 08:12:30;;;;;;;59.15;49.45;;;20.10;99.90;;;;;;6096545;23;20025;-24
2021/01/28 08:14:58;;;;;;;40.53;36.13;;;20.10;99.90;;;;;;6096788;23;20003;-24
2021/01/28 08:17:33;;;;;;;93.65;78.57;;;20.20;99.90;;;;;;6096468;23;20070;-24
2021/01/28 08:20:26;;;;;;;113.47;95.18;;;20.20;99.90;;;;;;6096897;23;20003;-24
2021/01/28 08:23:04;;;;;;;55.60;43.33;;;20.10;99.90;;;;;;6096540;23;20002;-25
2021/01/28 08:25:37;;;;;;;66.47;49.58;;;20.20;99.90;;;;;;6095588;23;20011;-24
2021/01/28 08:28:13;;;;;;;41.95;35.30;;;20.30;99.90;;;;;;6098334;23;20007;-25
2021/01/28 08:30:41;;;;;;;28.58;25.58;;;20.30;99.90;;;;;;6098840;23;20029;-24
2021/01/28 08:33:10;;;;;;;22.77;17.35;;;20.40;99.90;;;;;;6072971;23;20003;-24
2021/01/28 08:35:43;;;;;;;19.75;12.77;;;20.40;99.90;;;;;;6098353;23;20057;-25
2021/01/28 08:38:20;;;;;;;14.23;8.38;;;20.50;99.90;;;;;;6097812;23;20003;-25
2021/01/28 08:41:28;;;;;;;11.02;8.68;;;20.60;99.90;;;;;;6098061;23;20418;-23
2021/01/28 08:44:07;;;;;;;20.88;13.80;;;20.60;99.90;;;;;;5981420;24;20012;-24
2021/01/28 08:46:34;;;;;;;17.80;10.73;;;20.60;99.90;;;;;;5957768;23;20012;-23
2021/01/28 08:49:29;;;;;;;13.73;10.70;;;20.60;99.90;;;;;;5957639;24;20087;-23
2021/01/28 08:52:02;;;;;;;11.38;7.75;;;20.50;99.90;;;;;;5949721;24;20036;-23
2021/01/28 08:54:34;;;;;;;12.00;7.28;;;20.50;99.90;;;;;;5980517;24;20373;-23
2021/01/28 08:57:01;;;;;;;13.38;5.75;;;20.50;99.90;;;;;;5980821;24;20013;-23
2021/01/28 08:59:44;;;;;;;15.95;5.53;;;20.40;99.90;;;;;;5980962;24;20179;-23
2021/01/28 09:02:29;;;;;;;312.10;268.38;;;20.50;99.90;;;;;;5980071;24;20032;-24
2021/01/28 09:05:06;;;;;;;26.58;19.58;;;20.40;99.90;;;;;;5980093;24;20018;-24
2021/01/28 09:07:49;;;;;;;;;;;20.40;99.90;;;;;;5980465;24;20020;-23
2021/01/28 09:10:40;;;;;;;13.60;8.05;;;20.40;99.90;;;;;;5979744;23;19949;-24
2021/01/28 09:13:31;;;;;;;293.40;239.95;;;20.40;99.90;;;;;;5980553;24;20020;-24
2021/01/28 09:16:18;;;;;;;33.03;24.40;;;20.50;99.90;;;;;;5980112;24;20019;-24
2021/01/28 09:18:48;;;;;;;22.70;15.40;;;20.50;99.90;;;;;;5979334;23;20007;-24
2021/01/28 09:21:18;;;;;;;13.73;10.48;;;20.40;99.90;;;;;;6096909;23;20006;-25
2021/01/28 09:24:20;;;;;;;15.25;9.82;;;20.40;99.90;;;;;;6096500;23;20026;-24
2021/01/28 09:26:47;;;;;;;22.58;17.17;;;20.40;99.90;;;;;;6070724;23;20010;-24
2021/01/28 09:29:18;;;;;;;19.08;12.27;;;20.30;99.90;;;;;;6096370;23;20013;-24
2021/01/28 09:31:46;;;;;;;16.55;12.55;;;20.40;99.90;;;;;;6096481;23;20006;-24
2021/01/28 09:34:33;;;;;;;14.60;9.00;;;20.40;99.90;;;;;;6096142;23;20026;-25
2021/01/28 09:37:18;;;;;;;9.48;7.13;;;20.40;99.90;;;;;;6095305;23;20010;-25
2021/01/28 09:39:52;;;;;;;8.57;6.75;;;20.30;99.90;;;;;;6095769;23;20006;-24
2021/01/28 09:42:28;;;;;;;8.75;5.70;;;20.30;99.90;;;;;;6095573;23;20049;-25
2021/01/28 09:44:55;;;;;;;13.15;5.88;;;20.30;99.90;;;;;;6095495;23;20033;-25
2021/01/28 09:47:23;;;;;;;;;;;20.40;99.90;;;;;;6096032;23;20025;-24
2021/01/28 09:49:54;;;;;;;245.63;211.75;;;20.40;99.90;;;;;;6095775;23;19980;-24
2021/01/28 09:52:22;;;;;;;36.22;25.38;;;20.40;99.90;;;;;;6095587;23;20130;-24
2021/01/28 09:54:52;;;;;;;;;;;20.50;99.90;;;;;;6096262;23;19998;-25
2021/01/28 09:57:18;;;;;;;12.63;8.52;;;20.70;99.90;;;;;;6096034;23;20240;-25
2021/01/28 09:59:44;;;;;;;9.90;5.78;;;20.70;99.90;;;;;;6096063;23;20436;-25
2021/01/28 10:02:15;;;;;;;14.52;8.63;;;20.70;99.90;;;;;;6095754;23;20073;-24
2021/01/28 10:04:43;;;;;;;25.30;20.75;;;20.80;99.90;;;;;;6070561;23;20010;-25
2021/01/28 10:07:10;;;;;;;66.68;52.85;;;20.90;99.90;;;;;;6097261;23;20010;-25
2021/01/28 10:09:36;;;;;;;29.92;23.20;;;20.90;99.90;;;;;;6096731;23;20085;-25
2021/01/28 10:12:02;;;;;;;22.02;16.17;;;20.90;99.90;;;;;;6071021;23;20310;-25
2021/01/28 10:14:28;;;;;;;24.10;17.33;;;21.00;99.90;;;;;;6095939;23;20134;-25
2021/01/28 10:16:54;;;;;;;61.40;49.28;;;21.00;99.90;;;;;;6096773;23;20066;-24
2021/01/28 10:19:20;;;;;;;58.67;45.17;;;21.10;99.90;;;;;;6096644;23;20007;-25
2021/01/28 10:21:45;;;;;;;29.38;24.92;;;21.00;99.90;;;;;;6096434;23;20028;-24
2021/01/28 10:24:11;;;;;;;13.80;10.98;;;21.00;99.90;;;;;;6095556;23;19998;-25
2021/01/28 10:26:37;;;;;;;11.27;9.88;;;21.00;99.90;;;;;;6094720;23;20074;-24
2021/01/28 10:29:03;;;;;;;12.07;8.52;;;21.10;99.90;;;;;;6095705;23;20077;-25
2021/01/28 10:31:29;;;;;;;8.50;6.15;;;21.20;99.90;;;;;;6096085;23;20043;-25
2021/01/28 10:33:55;;;;;;;24.10;17.13;;;21.20;99.90;;;;;;6071142;23;20002;-24
2021/01/28 10:36:21;;;;;;;49.78;37.75;;;21.30;99.90;;;;;;6096587;23;20060;-25
2021/01/28 10:38:47;;;;;;;40.17;28.90;;;21.40;99.90;;;;;;6096524;23;20010;-25
2021/01/28 10:41:13;;;;;;;18.92;13.80;;;21.40;99.90;;;;;;6096677;23;20013;-25
2021/01/28 10:43:39;;;;;;;23.77;7.95;;;21.40;99.90;;;;;;6095377;23;20377;-25
2021/01/28 10:46:05;;;;;;;11.73;5.43;;;21.50;99.90;;;;;;6096271;23;20006;-25
2021/01/28 10:48:30;;;;;;;8.90;3.90;;;21.50;99.90;;;;;;6096409;23;20029;-25
2021/01/28 10:50:56;;;;;;;9.65;3.22;;;21.50;99.90;;;;;;6096495;23;20081;-24
2021/01/28 10:53:22;;;;;;;4.78;2.85;;;21.50;99.90;;;;;;6095866;23;19998;-25
2021/01/28 10:55:48;;;;;;;14.18;11.60;;;21.50;99.90;;;;;;6094655;23;20329;-25
2021/01/28 10:58:14;;;;;;;7.47;5.38;;;21.50;99.90;;;;;;6096097;23;20002;-25
2021/01/28 11:00:40;;;;;;;3.33;1.70;;;21.60;99.90;;;;;;6096615;23;19998;-25
2021/01/28 11:03:06;;;;;;;3.40;2.00;;;21.80;99.90;;;;;;6096322;23;20069;-25
2021/01/28 11:05:34;;;;;;;6.00;2.53;;;21.80;99.90;;;;;;6096319;23;20006;-25
2021/01/28 11:08:00;;;;;;;2.78;1.33;;;21.90;99.90;;;;;;6096816;23;19999;-25
2021/01/28 11:10:28;;;;;;;3.60;1.77;;;22.00;99.90;;;;;;6071094;23;20011;-25
2021/01/28 11:12:56;;;;;;;2.47;2.17;;;22.00;99.90;;;;;;6096697;23;20030;-25
2021/01/28 11:15:24;;;;;;;3.53;1.73;;;22.10;99.90;;;;;;6096644;23;19998;-25
2021/01/28 11:17:50;;;;;;;4.88;2.40;;;22.10;99.90;;;;;;6096720;23;20029;-25
2021/01/28 11:20:17;;;;;;;2.10;1.63;;;22.20;99.90;;;;;;6096927;23;20429;-25
2021/01/28 11:22:43;;;;;;;4.28;1.92;;;22.20;99.90;;;;;;6096946;23;20085;-24
2021/01/28 11:25:12;;;;;;;5.55;1.65;;;22.30;99.90;;;;;;6096623;23;20006;-25
2021/01/28 11:27:38;;;;;;;306.25;271.70;;;22.30;99.90;;;;;;6096880;23;20006;-25
2021/01/28 11:30:07;;;;;;;43.35;34.80;;;22.40;99.90;;;;;;6096592;23;20013;-25
2021/01/28 11:32:32;;;;;;;7.07;5.25;;;22.60;99.90;;;;;;6096641;23;20017;-25
2021/01/28 11:35:00;;;;;;;2.58;1.83;;;22.70;99.90;;;;;;6096634;23;20070;-25
2021/01/28 11:37:25;;;;;;;1.23;1.10;;;22.90;99.90;;;;;;6095089;23;20010;-25
2021/01/28 11:39:51;;;;;;;4.65;1.63;;;23.00;99.90;;;;;;6093727;23;20014;-25
2021/01/28 11:42:18;;;;;;;1.10;0.90;;;23.10;99.90;;;;;;6096192;23;20672;-25
2021/01/28 11:44:44;;;;;;;3.00;1.70;;;23.10;99.90;;;;;;6095712;23;20448;-25
2021/01/28 11:47:10;;;;;;;4.88;1.13;;;23.10;99.90;;;;;;6095467;23;20656;-26
2021/01/28 11:49:36;;;;;;;1.63;1.38;;;23.20;99.90;;;;;;6095187;23;19998;-24
2021/01/28 11:52:02;;;;;;;4.22;1.25;;;23.30;99.90;;;;;;6093575;23;20010;-25
2021/01/28 11:54:28;;;;;;;2.38;0.90;;;23.40;99.90;;;;;;6094124;23;20050;-25
2021/01/28 11:56:54;;;;;;;2.83;0.95;;;23.50;99.90;;;;;;6094974;23;20030;-25
2021/01/28 11:59:19;;;;;;;1.25;1.13;;;23.50;99.90;;;;;;6095341;23;20011;-25
2021/01/28 12:01:45;;;;;;;2.38;1.15;;;23.60;99.90;;;;;;6096796;23;20454;-25
2021/01/28 12:04:11;;;;;;;1.85;1.20;;;23.70;99.90;;;;;;6096554;23;20370;-25
2021/01/28 12:06:40;;;;;;;2.47;1.20;;;23.80;99.90;;;;;;6095468;23;20322;-25
2021/01/28 12:09:05;;;;;;;2.17;1.25;;;23.80;99.90;;;;;;6096002;23;20003;-25
2021/01/28 12:11:32;;;;;;;3.05;1.20;;;23.80;99.90;;;;;;6096632;23;20025;-25
2021/01/28 12:13:58;;;;;;;9.52;1.33;;;23.90;99.90;;;;;;6096241;23;20002;-26
2021/01/28 12:16:24;;;;;;;9.27;1.35;;;23.80;99.90;;;;;;6095536;23;20333;-25
2021/01/28 12:18:50;;;;;;;3.58;1.20;;;23.80;99.90;;;;;;6096102;23;20007;-26
2021/01/28 12:21:16;;;;;;;5.50;1.58;;;23.80;99.90;;;;;;6070460;23;20006;-25
2021/01/28 12:23:42;;;;;;;21.85;3.28;;;23.90;99.90;;;;;;6095984;23;20080;-25
2021/01/28 12:26:08;;;;;;;2.83;1.63;;;23.90;99.90;;;;;;6095369;23;20052;-25
2021/01/28 12:28:33;;;;;;;10.02;2.10;;;23.70;99.90;;;;;;6095746;23;20003;-25
2021/01/28 12:30:59;;;;;;;11.85;1.75;;;23.50;99.90;;;;;;6095071;23;20445;-25
2021/01/28 12:33:25;;;;;;;11.48;2.60;;;23.50;99.90;;;;;;6094609;23;20492;-25
2021/01/28 12:35:51;;;;;;;12.02;2.00;;;23.50;99.90;;;;;;6094674;23;20053;-26
2021/01/28 12:38:17;;;;;;;7.97;2.67;;;23.50;99.90;;;;;;6095369;23;20003;-25
2021/01/28 12:40:43;;;;;;;25.05;2.65;;;23.50;99.90;;;;;;6095115;23;20429;-25
2021/01/28 12:43:09;;;;;;;10.23;2.67;;;23.50;99.90;;;;;;6095735;23;20005;-23
2021/01/28 12:45:35;;;;;;;8.75;2.65;;;23.50;99.90;;;;;;6096173;23;19998;-26
2021/01/28 12:48:01;;;;;;;13.23;2.58;;;23.60;99.90;;;;;;6096202;23;20143;-26
2021/01/28 12:50:28;;;;;;;10.47;2.30;;;23.60;99.90;;;;;;6096456;23;19999;-26
2021/01/28 12:52:54;;;;;;;7.57;2.13;;;23.60;99.90;;;;;;6096035;23;20074;-30
2021/01/28 12:55:20;;;;;;;7.63;2.30;;;23.60;99.90;;;;;;6096401;23;20037;-26
2021/01/28 12:57:46;;;;;;;6.43;2.35;;;23.60;99.90;;;;;;6096248;23;20057;-26
2021/01/28 13:00:16;;;;;;;8.45;2.00;;;23.60;99.90;;;;;;6096256;23;20362;-26
2021/01/28 13:02:42;;;;;;;3.65;2.25;;;23.70;99.90;;;;;;6096293;23;20006;-26